Time,TemperatureF,DewpointF,PressureIn,WindDirection,WindDirectionDegrees,WindSpeedMPH,WindSpeedGustMPH,Humidity,HourlyPrecipIn,Conditions,Clouds,dailyrainin,SoftwareType,DateUTC
2013-03-20 00:02:00,41.0,31.0,29.94,SSW,207,0.0,-999.0,68,-99.99,,,-99.99,,2013-03-20 07:02:00,
2013-03-20 00:11:00,41.0,31.0,29.94,SSW,207,0.0,-999.0,68,-99.99,,,-99.99,,2013-03-20 07:11:00,
2013-03-20 00:21:00,41.0,31.0,29.94,SSW,207,0.0,-999.0,68,-99.99,,,-99.99,,2013-03-20 07:21:00,
2013-03-20 00:32:00,41.0,30.0,29.92,SSW,207,0.0,-999.0,65,-99.99,,,-99.99,,2013-03-20 07:32:00,
2013-03-20 00:42:00,41.0,30.0,29.92,SSW,207,0.0,-999.0,65,-99.99,,,-99.99,,2013-03-20 07:42:00,
2013-03-20 00:52:00,41.0,30.0,29.91,NE,37,0.0,-999.0,65,-99.99,,,-99.99,,2013-03-20 07:52:00,
2013-03-20 01:02:00,41.0,31.0,29.90,NE,37,0.0,-999.0,66,-99.99,,,-99.99,,2013-03-20 08:02:00,
2013-03-20 01:12:00,41.0,31.0,29.90,NE,37,0.0,-999.0,66,-99.99,,,-99.99,,2013-03-20 08:12:00,
2013-03-20 01:21:00,42.0,31.0,29.89,NE,37,0.0,-999.0,64,-99.99,,,-99.99,,2013-03-20 08:21:00,
2013-03-20 01:32:00,42.0,30.0,29.89,NE,37,0.0,-999.0,63,-99.99,,,-99.99,,2013-03-20 08:32:00,
2013-03-20 01:42:00,42.0,30.0,29.89,NE,37,0.0,-999.0,63,-99.99,,,-99.99,,2013-03-20 08:42:00,
2013-03-20 01:51:00,42.0,30.0,29.88,NE,37,0.0,-999.0,63,-99.99,,,-99.99,,2013-03-20 08:51:00,
2013-03-20 02:02:00,42.0,31.0,29.88,WNW,286,0.0,-999.0,64,-99.99,,,-99.99,,2013-03-20 09:02:00,
2013-03-20 02:12:00,42.0,31.0,29.88,WNW,286,0.0,-999.0,64,-99.99,,,-99.99,,2013-03-20 09:12:00,
2013-03-20 02:22:00,42.0,31.0,29.87,ENE,70,1.0,-999.0,65,-99.99,,,-99.99,,2013-03-20 09:22:00,
2013-03-20 02:32:00,46.0,30.0,29.87,SE,128,3.0,-999.0,54,-99.99,,,-99.99,,2013-03-20 09:32:00,
2013-03-20 02:43:00,46.0,30.0,29.87,SE,128,3.0,-999.0,54,-99.99,,,-99.99,,2013-03-20 09:43:00,
2013-03-20 02:52:00,46.0,32.0,29.85,East,88,0.0,-999.0,58,-99.99,,,-99.99,,2013-03-20 09:52:00,
2013-03-20 03:02:00,44.0,32.0,29.85,East,88,0.0,-999.0,62,-99.99,,,-99.99,,2013-03-20 10:02:00,
2013-03-20 03:12:00,44.0,32.0,29.85,East,88,0.0,-999.0,62,-99.99,,,-99.99,,2013-03-20 10:12:00,
2013-03-20 03:22:00,44.0,32.0,29.85,East,88,0.0,-999.0,62,-99.99,,,-99.99,,2013-03-20 10:22:00,
2013-03-20 03:32:00,43.0,31.0,29.82,East,88,0.0,-999.0,63,-99.99,,,-99.99,,2013-03-20 10:32:00,
2013-03-20 03:43:00,43.0,31.0,29.82,East,88,0.0,-999.0,63,-99.99,,,-99.99,,2013-03-20 10:43:00,
2013-03-20 03:53:00,44.0,31.0,29.82,SE,138,0.0,-999.0,60,-99.99,,,-99.99,,2013-03-20 10:53:00,
2013-03-20 04:02:00,45.0,31.0,29.80,SSE,162,1.0,-999.0,58,-99.99,,,-99.99,,2013-03-20 11:02:00,
2013-03-20 04:12:00,45.0,31.0,29.80,SSE,162,1.0,-999.0,58,-99.99,,,-99.99,,2013-03-20 11:12:00,
2013-03-20 04:22:00,44.0,31.0,29.81,South,190,1.0,-999.0,61,-99.99,,,-99.99,,2013-03-20 11:22:00,
2013-03-20 04:32:00,43.0,31.0,29.81,South,190,0.0,-999.0,63,-99.99,,,-99.99,,2013-03-20 11:32:00,
2013-03-20 04:42:00,43.0,31.0,29.81,South,190,0.0,-999.0,63,-99.99,,,-99.99,,2013-03-20 11:42:00,
2013-03-20 04:51:00,43.0,32.0,29.82,East,80,0.0,-999.0,64,-99.99,,,-99.99,,2013-03-20 11:51:00,
2013-03-20 05:02:00,44.0,34.0,29.83,SE,136,4.0,-999.0,67,-99.99,,,-99.99,,2013-03-20 12:02:00,
2013-03-20 05:12:00,44.0,34.0,29.83,SE,136,4.0,-999.0,67,-99.99,,,-99.99,,2013-03-20 12:12:00,
2013-03-20 05:22:00,43.0,35.0,29.82,South,181,3.0,-999.0,74,-99.99,,,-99.99,,2013-03-20 12:22:00,
2013-03-20 05:32:00,44.0,36.0,29.82,SSW,196,7.0,-999.0,74,-99.99,,,-99.99,,2013-03-20 12:32:00,
2013-03-20 05:42:00,44.0,36.0,29.82,SSW,196,7.0,-999.0,74,-99.99,,,-99.99,,2013-03-20 12:42:00,
2013-03-20 05:52:00,43.0,37.0,29.81,SSE,156,4.0,-999.0,80,-99.99,,,-99.99,,2013-03-20 12:52:00,
2013-03-20 06:02:00,42.0,38.0,29.81,East,92,1.0,-999.0,84,-99.99,,,-99.99,,2013-03-20 13:02:00,
2013-03-20 06:12:00,42.0,38.0,29.81,East,92,1.0,-999.0,84,-99.99,,,-99.99,,2013-03-20 13:12:00,
2013-03-20 06:22:00,41.0,37.0,29.80,East,86,2.0,-999.0,85,-99.99,,,-99.99,,2013-03-20 13:22:00,
2013-03-20 06:32:00,41.0,37.0,29.79,East,86,1.0,-999.0,85,-99.99,,,-99.99,,2013-03-20 13:32:00,
2013-03-20 06:42:00,41.0,37.0,29.79,East,86,1.0,-999.0,85,-99.99,,,-99.99,,2013-03-20 13:42:00,
2013-03-20 06:52:00,41.0,37.0,29.78,East,86,1.0,-999.0,87,-99.99,,,-99.99,,2013-03-20 13:52:00,
2013-03-20 07:02:00,41.0,38.0,29.77,East,94,1.0,-999.0,88,-99.99,,,-99.99,,2013-03-20 14:02:00,
2013-03-20 07:12:00,41.0,38.0,29.77,East,94,1.0,-999.0,88,-99.99,,,-99.99,,2013-03-20 14:12:00,
2013-03-20 07:22:00,40.0,37.0,29.77,East,85,1.0,-999.0,90,-99.99,,,-99.99,,2013-03-20 14:22:00,
2013-03-20 07:32:00,40.0,37.0,29.76,East,92,1.0,-999.0,90,-99.99,,,-99.99,,2013-03-20 14:32:00,
2013-03-20 07:42:00,40.0,37.0,29.76,East,92,1.0,-999.0,90,-99.99,,,-99.99,,2013-03-20 14:42:00,
2013-03-20 07:51:00,40.0,37.0,29.77,East,93,0.0,-999.0,90,-99.99,,,-99.99,,2013-03-20 14:51:00,
2013-03-20 08:02:00,40.0,38.0,29.78,East,93,0.0,-999.0,91,-99.99,,,-99.99,,2013-03-20 15:02:00,
2013-03-20 08:12:00,40.0,38.0,29.77,East,93,0.0,-999.0,93,-99.99,,,-99.99,,2013-03-20 15:12:00,
2013-03-20 08:22:00,40.0,38.0,29.77,East,93,0.0,-999.0,93,-99.99,,,-99.99,,2013-03-20 15:22:00,
2013-03-20 08:33:00,40.0,38.0,29.76,East,93,0.0,-999.0,93,-99.99,,,-99.99,,2013-03-20 15:33:00,
2013-03-20 08:43:00,40.0,38.0,29.76,East,93,0.0,-999.0,93,-99.99,,,-99.99,,2013-03-20 15:43:00,
2013-03-20 08:52:00,40.0,38.0,29.75,East,93,0.0,-999.0,94,-99.99,,,-99.99,,2013-03-20 15:52:00,
2013-03-20 09:02:00,40.0,38.0,29.75,East,93,0.0,-999.0,94,-99.99,,,-99.99,,2013-03-20 16:02:00,
2013-03-20 09:12:00,40.0,38.0,29.75,East,93,0.0,-999.0,94,-99.99,,,-99.99,,2013-03-20 16:12:00,
2013-03-20 09:22:00,40.0,38.0,29.74,East,93,0.0,-999.0,94,-99.99,,,-99.99,,2013-03-20 16:22:00,
2013-03-20 09:32:00,41.0,39.0,29.74,East,93,0.0,-999.0,94,-99.99,,,-99.99,,2013-03-20 16:32:00,
2013-03-20 09:42:00,41.0,39.0,29.74,East,93,0.0,-999.0,94,-99.99,,,-99.99,,2013-03-20 16:42:00,
2013-03-20 09:52:00,41.0,39.0,29.73,East,93,0.0,-999.0,94,-99.99,,,-99.99,,2013-03-20 16:52:00,
2013-03-20 10:02:00,44.0,42.0,29.72,East,93,0.0,-999.0,92,-99.99,,,-99.99,,2013-03-20 17:02:00,
2013-03-20 10:12:00,44.0,42.0,29.72,East,93,0.0,-999.0,92,-99.99,,,-99.99,,2013-03-20 17:12:00,
2013-03-20 10:21:00,47.0,43.0,29.71,East,82,2.0,-999.0,86,-99.99,,,-99.99,,2013-03-20 17:21:00,
2013-03-20 10:32:00,47.0,42.0,29.70,East,98,3.0,-999.0,83,-99.99,,,-99.99,,2013-03-20 17:32:00,
2013-03-20 10:42:00,47.0,42.0,29.70,East,98,3.0,-999.0,83,-99.99,,,-99.99,,2013-03-20 17:42:00,
2013-03-20 10:52:00,47.0,41.0,29.70,East,88,2.0,-999.0,80,-99.99,,,-99.99,,2013-03-20 17:52:00,
2013-03-20 11:02:00,48.0,42.0,29.69,East,86,3.0,-999.0,80,-99.99,,,-99.99,,2013-03-20 18:02:00,
2013-03-20 11:12:00,48.0,42.0,29.69,East,86,3.0,-999.0,80,-99.99,,,-99.99,,2013-03-20 18:12:00,
2013-03-20 11:22:00,48.0,42.0,29.68,East,95,2.0,-999.0,80,-99.99,,,-99.99,,2013-03-20 18:22:00,
2013-03-20 11:32:00,48.0,42.0,29.68,East,92,1.0,-999.0,80,-99.99,,,-99.99,,2013-03-20 18:32:00,
2013-03-20 11:42:00,48.0,42.0,29.68,East,92,1.0,-999.0,80,-99.99,,,-99.99,,2013-03-20 18:42:00,
2013-03-20 11:52:00,48.0,42.0,29.67,East,88,2.0,-999.0,80,-99.99,,,-99.99,,2013-03-20 18:52:00,
2013-03-20 12:02:00,48.0,41.0,29.67,East,86,3.0,-999.0,78,-99.99,,,-99.99,,2013-03-20 19:02:00,
2013-03-20 12:12:00,48.0,41.0,29.67,East,86,3.0,-999.0,78,-99.99,,,-99.99,,2013-03-20 19:12:00,
2013-03-20 12:22:00,49.0,42.0,29.66,ENE,74,2.0,-999.0,77,-99.99,,,-99.99,,2013-03-20 19:22:00,
2013-03-20 12:32:00,49.0,42.0,29.66,East,86,3.0,-999.0,76,-99.99,,,-99.99,,2013-03-20 19:32:00,
2013-03-20 12:42:00,49.0,42.0,29.66,East,86,3.0,-999.0,76,-99.99,,,-99.99,,2013-03-20 19:42:00,
2013-03-20 12:52:00,50.0,43.0,29.65,East,90,3.0,-999.0,76,-99.99,,,-99.99,,2013-03-20 19:52:00,
2013-03-20 13:02:00,50.0,43.0,29.64,ENE,77,1.0,-999.0,76,-99.99,,,-99.99,,2013-03-20 20:02:00,
2013-03-20 13:12:00,50.0,43.0,29.64,ENE,77,1.0,-999.0,76,-99.99,,,-99.99,,2013-03-20 20:12:00,
2013-03-20 13:22:00,53.0,43.0,29.63,SSE,157,4.0,-999.0,70,-99.99,,,-99.99,,2013-03-20 20:22:00,
2013-03-20 13:32:00,53.0,43.0,29.62,South,174,4.0,-999.0,68,-99.99,,,-99.99,,2013-03-20 20:32:00,
2013-03-20 13:42:00,53.0,43.0,29.62,South,174,4.0,-999.0,68,-99.99,,,-99.99,,2013-03-20 20:42:00,
2013-03-20 13:52:00,56.0,43.0,29.61,SSW,198,7.0,-999.0,61,-99.99,,,-99.99,,2013-03-20 20:52:00,
2013-03-20 14:02:00,57.0,42.0,29.59,South,171,9.0,-999.0,58,-99.99,,,-99.99,,2013-03-20 21:02:00,
2013-03-20 14:22:00,56.0,41.0,29.57,SSW,196,11.0,-999.0,56,-99.99,,,-99.99,,2013-03-20 21:22:00,
2013-03-20 14:33:00,57.0,40.0,29.56,South,172,12.0,-999.0,53,-99.99,,,-99.99,,2013-03-20 21:33:00,
2013-03-20 14:42:00,57.0,40.0,29.56,South,172,12.0,-999.0,53,-99.99,,,-99.99,,2013-03-20 21:42:00,
2013-03-20 14:52:00,59.0,42.0,29.55,South,178,8.0,-999.0,53,-99.99,,,-99.99,,2013-03-20 21:52:00,
2013-03-20 15:02:00,57.0,39.0,29.54,SSE,159,15.0,-999.0,50,-99.99,,,-99.99,,2013-03-20 22:02:00,
2013-03-20 15:12:00,57.0,39.0,29.54,SSE,159,15.0,-999.0,50,-99.99,,,-99.99,,2013-03-20 22:12:00,
2013-03-20 15:22:00,56.0,38.0,29.54,South,187,13.0,-999.0,51,-99.99,,,-99.99,,2013-03-20 22:22:00,
2013-03-20 15:32:00,56.0,38.0,29.54,South,187,13.0,-999.0,51,-99.99,,,-99.99,,2013-03-20 22:32:00,
2013-03-20 15:42:00,56.0,38.0,29.54,South,187,13.0,-999.0,51,-99.99,,,-99.99,,2013-03-20 22:42:00,
2013-03-20 15:52:00,56.0,38.0,29.54,South,187,13.0,-999.0,51,-99.99,,,-99.99,,2013-03-20 22:52:00,
2013-03-20 20:02:00,36.0,34.0,29.79,ESE,103,1.0,-999.0,94,-99.99,,,-99.99,,2013-03-21 03:02:00,
2013-03-20 20:12:00,36.0,34.0,29.79,ESE,103,1.0,-999.0,94,-99.99,,,-99.99,,2013-03-21 03:12:00,
2013-03-20 20:22:00,36.0,34.0,29.79,SSE,156,0.0,-999.0,94,-99.99,,,-99.99,,2013-03-21 03:22:00,
2013-03-20 20:32:00,36.0,34.0,29.80,South,170,3.0,-999.0,94,-99.99,,,-99.99,,2013-03-21 03:32:00,
2013-03-20 20:43:00,36.0,34.0,29.80,South,170,3.0,-999.0,94,-99.99,,,-99.99,,2013-03-21 03:43:00,
2013-03-20 20:52:00,36.0,34.0,29.80,South,175,2.0,-999.0,94,-99.99,,,-99.99,,2013-03-21 03:52:00,
2013-03-20 21:02:00,36.0,34.0,29.81,SSW,201,2.0,-999.0,94,-99.99,,,-99.99,,2013-03-21 04:02:00,
2013-03-20 21:12:00,36.0,34.0,29.81,SSW,201,2.0,-999.0,94,-99.99,,,-99.99,,2013-03-21 04:12:00,
2013-03-20 21:22:00,36.0,34.0,29.82,SSW,201,1.0,-999.0,94,-99.99,,,-99.99,,2013-03-21 04:22:00,
2013-03-20 21:32:00,35.0,33.0,29.82,SSW,201,0.0,-999.0,94,-99.99,,,-99.99,,2013-03-21 04:32:00,
2013-03-20 21:43:00,35.0,33.0,29.82,SSW,201,0.0,-999.0,94,-99.99,,,-99.99,,2013-03-21 04:43:00,
2013-03-20 21:52:00,35.0,33.0,29.83,SSW,201,0.0,-999.0,93,-99.99,,,-99.99,,2013-03-21 04:52:00,
2013-03-20 22:02:00,33.0,31.0,29.84,SSW,201,0.0,-999.0,94,-99.99,,,-99.99,,2013-03-21 05:02:00,
2013-03-20 22:12:00,33.0,31.0,29.84,SSW,201,0.0,-999.0,94,-99.99,,,-99.99,,2013-03-21 05:12:00,
2013-03-20 22:21:00,33.0,31.0,29.85,SSW,201,0.0,-999.0,94,-99.99,,,-99.99,,2013-03-21 05:21:00,
2013-03-20 22:32:00,32.0,30.0,29.85,South,184,0.0,-999.0,94,-99.99,,,-99.99,,2013-03-21 05:32:00,
2013-03-20 22:43:00,32.0,30.0,29.85,South,184,0.0,-999.0,94,-99.99,,,-99.99,,2013-03-21 05:43:00,
2013-03-20 22:51:00,32.0,31.0,29.86,South,184,0.0,-999.0,95,-99.99,,,-99.99,,2013-03-21 05:51:00,
2013-03-20 23:02:00,32.0,31.0,29.87,South,184,0.0,-999.0,95,-99.99,,,-99.99,,2013-03-21 06:02:00,
2013-03-20 23:12:00,32.0,31.0,29.87,South,184,0.0,-999.0,95,-99.99,,,-99.99,,2013-03-21 06:12:00,
2013-03-20 23:22:00,32.0,31.0,29.87,South,186,0.0,-999.0,95,-99.99,,,-99.99,,2013-03-21 06:22:00,
2013-03-20 23:32:00,32.0,31.0,29.88,South,186,0.0,-999.0,95,-99.99,,,-99.99,,2013-03-21 06:32:00,
2013-03-20 23:42:00,32.0,31.0,29.88,South,186,0.0,-999.0,95,-99.99,,,-99.99,,2013-03-21 06:42:00,
2013-03-20 23:51:00,33.0,31.0,29.88,South,186,1.0,-999.0,94,-99.99,,,-99.99,,2013-03-21 06:51:00,